sensor_id;sensor_type;location;lat;lon;timestamp;temperature;humidity
70534;SHT31;58088;51.186;17.130;2022-12-07T00:01:34;4.00;81.90
70534;SHT31;58088;51.186;17.130;2022-12-07T00:04:05;4.00;81.91
70534;SHT31;58088;51.186;17.130;2022-12-07T00:06:34;4.00;82.00
70534;SHT31;58088;51.186;17.130;2022-12-07T00:09:04;3.99;82.00
70534;SHT31;58088;51.186;17.130;2022-12-07T00:11:32;4.00;82.05
70534;SHT31;58088;51.186;17.130;2022-12-07T00:14:00;4.02;82.09
70534;SHT31;58088;51.186;17.130;2022-12-07T00:16:31;4.06;82.12
70534;SHT31;58088;51.186;17.130;2022-12-07T00:18:59;4.07;82.10
70534;SHT31;58088;51.186;17.130;2022-12-07T00:21:33;4.07;82.09
70534;SHT31;58088;51.186;17.130;2022-12-07T00:24:01;4.08;82.09
70534;SHT31;58088;51.186;17.130;2022-12-07T00:26:32;4.07;82.04
70534;SHT31;58088;51.186;17.130;2022-12-07T00:29:13;4.07;82.08
70534;SHT31;58088;51.186;17.130;2022-12-07T00:31:43;4.05;82.04
70534;SHT31;58088;51.186;17.130;2022-12-07T00:34:14;4.03;82.10
70534;SHT31;58088;51.186;17.130;2022-12-07T00:36:44;4.04;82.10
70534;SHT31;58088;51.186;17.130;2022-12-07T00:39:10;4.01;82.11
70534;SHT31;58088;51.186;17.130;2022-12-07T00:41:37;4.04;82.14
70534;SHT31;58088;51.186;17.130;2022-12-07T00:44:03;4.05;82.13
70534;SHT31;58088;51.186;17.130;2022-12-07T00:46:30;4.07;82.16
70534;SHT31;58088;51.186;17.130;2022-12-07T00:48:56;4.07;82.10
70534;SHT31;58088;51.186;17.130;2022-12-07T00:51:23;4.08;82.10
70534;SHT31;58088;51.186;17.130;2022-12-07T00:53:50;4.08;82.08
70534;SHT31;58088;51.186;17.130;2022-12-07T00:56:22;4.08;82.02
70534;SHT31;58088;51.186;17.130;2022-12-07T00:58:56;4.09;82.09
70534;SHT31;58088;51.186;17.130;2022-12-07T01:01:25;4.09;82.03
70534;SHT31;58088;51.186;17.130;2022-12-07T01:03:54;4.07;82.01
70534;SHT31;58088;51.186;17.130;2022-12-07T01:06:21;4.09;82.08
70534;SHT31;58088;51.186;17.130;2022-12-07T01:08:49;4.09;82.07
70534;SHT31;58088;51.186;17.130;2022-12-07T01:11:17;4.06;82.00
70534;SHT31;58088;51.186;17.130;2022-12-07T01:13:49;4.04;82.09
70534;SHT31;58088;51.186;17.130;2022-12-07T01:16:18;4.07;82.10
70534;SHT31;58088;51.186;17.130;2022-12-07T01:18:47;4.06;82.07
70534;SHT31;58088;51.186;17.130;2022-12-07T01:21:20;4.04;82.10
70534;SHT31;58088;51.186;17.130;2022-12-07T01:23:49;4.03;82.10
70534;SHT31;58088;51.186;17.130;2022-12-07T01:26:18;4.02;82.10
70534;SHT31;58088;51.186;17.130;2022-12-07T01:28:48;4.01;82.10
70534;SHT31;58088;51.186;17.130;2022-12-07T01:31:16;4.01;82.10
70534;SHT31;58088;51.186;17.130;2022-12-07T01:33:46;4.02;82.14
70534;SHT31;58088;51.186;17.130;2022-12-07T01:36:22;4.02;82.10
70534;SHT31;58088;51.186;17.130;2022-12-07T01:38:56;3.99;82.09
70534;SHT31;58088;51.186;17.130;2022-12-07T01:41:27;3.98;82.09
70534;SHT31;58088;51.186;17.130;2022-12-07T01:44:14;3.94;82.07
70534;SHT31;58088;51.186;17.130;2022-12-07T01:46:50;3.88;82.15
70534;SHT31;58088;51.186;17.130;2022-12-07T01:52:16;3.88;82.30
70534;SHT31;58088;51.186;17.130;2022-12-07T01:55:03;3.86;82.28
70534;SHT31;58088;51.186;17.130;2022-12-07T01:57:35;3.85;82.30
70534;SHT31;58088;51.186;17.130;2022-12-07T02:00:07;3.85;82.33
70534;SHT31;58088;51.186;17.130;2022-12-07T02:05:40;3.85;82.34
70534;SHT31;58088;51.186;17.130;2022-12-07T02:08:08;3.84;82.36
70534;SHT31;58088;51.186;17.130;2022-12-07T02:10:37;3.85;82.40
70534;SHT31;58088;51.186;17.130;2022-12-07T02:18:31;3.87;82.42
70534;SHT31;58088;51.186;17.130;2022-12-07T02:30:08;3.86;82.39
70534;SHT31;58088;51.186;17.130;2022-12-07T02:38:11;3.82;82.40
70534;SHT31;58088;51.186;17.130;2022-12-07T02:40:55;3.81;82.40
70534;SHT31;58088;51.186;17.130;2022-12-07T02:44:03;3.79;82.40
70534;SHT31;58088;51.186;17.130;2022-12-07T02:46:33;3.74;82.40
70534;SHT31;58088;51.186;17.130;2022-12-07T02:49:16;3.74;82.48
70534;SHT31;58088;51.186;17.130;2022-12-07T02:51:44;3.72;82.42
70534;SHT31;58088;51.186;17.130;2022-12-07T02:54:16;3.69;82.48
70534;SHT31;58088;51.186;17.130;2022-12-07T03:05:08;3.68;82.58
70534;SHT31;58088;51.186;17.130;2022-12-07T03:11:12;3.64;82.60
70534;SHT31;58088;51.186;17.130;2022-12-07T03:19:46;3.68;82.68
70534;SHT31;58088;51.186;17.130;2022-12-07T03:22:17;3.68;82.60
70534;SHT31;58088;51.186;17.130;2022-12-07T03:24:50;3.69;82.62
70534;SHT31;58088;51.186;17.130;2022-12-07T03:27:24;3.69;82.60
70534;SHT31;58088;51.186;17.130;2022-12-07T03:33:03;3.74;82.60
70534;SHT31;58088;51.186;17.130;2022-12-07T03:35:40;3.73;82.58
70534;SHT31;58088;51.186;17.130;2022-12-07T03:40:59;3.73;82.56
70534;SHT31;58088;51.186;17.130;2022-12-07T03:43:29;3.69;82.50
70534;SHT31;58088;51.186;17.130;2022-12-07T03:46:10;3.67;82.50
70534;SHT31;58088;51.186;17.130;2022-12-07T03:49:05;3.65;82.59
70534;SHT31;58088;51.186;17.130;2022-12-07T03:51:50;3.65;82.56
70534;SHT31;58088;51.186;17.130;2022-12-07T03:54:28;3.67;82.56
70534;SHT31;58088;51.186;17.130;2022-12-07T03:57:05;3.64;82.51
70534;SHT31;58088;51.186;17.130;2022-12-07T03:59:34;3.64;82.52
70534;SHT31;58088;51.186;17.130;2022-12-07T04:02:03;3.61;82.52
70534;SHT31;58088;51.186;17.130;2022-12-07T04:04:33;3.60;82.57
70534;SHT31;58088;51.186;17.130;2022-12-07T04:07:00;3.57;82.60
70534;SHT31;58088;51.186;17.130;2022-12-07T04:09:26;3.56;82.62
70534;SHT31;58088;51.186;17.130;2022-12-07T04:11:52;3.56;82.64
70534;SHT31;58088;51.186;17.130;2022-12-07T04:14:19;3.56;82.61
70534;SHT31;58088;51.186;17.130;2022-12-07T04:16:46;3.58;82.64
70534;SHT31;58088;51.186;17.130;2022-12-07T04:19:20;3.57;82.61
70534;SHT31;58088;51.186;17.130;2022-12-07T04:21:50;3.58;82.60
70534;SHT31;58088;51.186;17.130;2022-12-07T04:24:17;3.58;82.60
70534;SHT31;58088;51.186;17.130;2022-12-07T04:26:44;3.61;82.60
70534;SHT31;58088;51.186;17.130;2022-12-07T04:29:12;3.63;82.60
70534;SHT31;58088;51.186;17.130;2022-12-07T04:31:40;3.64;82.53
70534;SHT31;58088;51.186;17.130;2022-12-07T04:34:06;3.64;82.51
70534;SHT31;58088;51.186;17.130;2022-12-07T04:36:34;3.67;82.50
70534;SHT31;58088;51.186;17.130;2022-12-07T04:39:01;3.68;82.48
70534;SHT31;58088;51.186;17.130;2022-12-07T04:41:29;3.67;82.49
70534;SHT31;58088;51.186;17.130;2022-12-07T04:43:57;3.68;82.46
70534;SHT31;58088;51.186;17.130;2022-12-07T04:46:27;3.67;82.47
70534;SHT31;58088;51.186;17.130;2022-12-07T04:48:57;3.67;82.46
70534;SHT31;58088;51.186;17.130;2022-12-07T04:51:25;3.66;82.43
70534;SHT31;58088;51.186;17.130;2022-12-07T04:53:55;3.65;82.48
70534;SHT31;58088;51.186;17.130;2022-12-07T04:56:22;3.62;82.50
70534;SHT31;58088;51.186;17.130;2022-12-07T04:58:49;3.64;82.51
70534;SHT31;58088;51.186;17.130;2022-12-07T05:01:18;3.65;82.50
70534;SHT31;58088;51.186;17.130;2022-12-07T05:03:46;3.65;82.50
70534;SHT31;58088;51.186;17.130;2022-12-07T05:06:12;3.65;82.49
70534;SHT31;58088;51.186;17.130;2022-12-07T05:08:40;3.64;82.50
70534;SHT31;58088;51.186;17.130;2022-12-07T05:11:09;3.65;82.50
70534;SHT31;58088;51.186;17.130;2022-12-07T05:14:00;3.66;82.50
70534;SHT31;58088;51.186;17.130;2022-12-07T05:16:28;3.67;82.51
70534;SHT31;58088;51.186;17.130;2022-12-07T05:18:55;3.72;82.51
70534;SHT31;58088;51.186;17.130;2022-12-07T05:21:22;3.73;82.50
70534;SHT31;58088;51.186;17.130;2022-12-07T05:23:49;3.74;82.50
70534;SHT31;58088;51.186;17.130;2022-12-07T05:26:15;3.73;82.45
70534;SHT31;58088;51.186;17.130;2022-12-07T05:28:42;3.71;82.49
70534;SHT31;58088;51.186;17.130;2022-12-07T05:31:08;3.71;82.50
70534;SHT31;58088;51.186;17.130;2022-12-07T05:33:34;3.71;82.50
70534;SHT31;58088;51.186;17.130;2022-12-07T05:36:01;3.73;82.56
70534;SHT31;58088;51.186;17.130;2022-12-07T05:38:31;3.74;82.51
70534;SHT31;58088;51.186;17.130;2022-12-07T05:41:02;3.73;82.54
70534;SHT31;58088;51.186;17.130;2022-12-07T05:43:31;3.75;82.54
70534;SHT31;58088;51.186;17.130;2022-12-07T05:45:59;3.75;82.57
70534;SHT31;58088;51.186;17.130;2022-12-07T05:48:26;3.74;82.59
70534;SHT31;58088;51.186;17.130;2022-12-07T05:50:52;3.75;82.60
70534;SHT31;58088;51.186;17.130;2022-12-07T05:53:19;3.77;82.63
70534;SHT31;58088;51.186;17.130;2022-12-07T05:55:45;3.79;82.66
70534;SHT31;58088;51.186;17.130;2022-12-07T05:58:11;3.81;82.70
70534;SHT31;58088;51.186;17.130;2022-12-07T06:00:56;3.83;82.60
70534;SHT31;58088;51.186;17.130;2022-12-07T06:03:22;3.82;82.60
70534;SHT31;58088;51.186;17.130;2022-12-07T06:05:49;3.82;82.58
70534;SHT31;58088;51.186;17.130;2022-12-07T06:08:15;3.80;82.50
70534;SHT31;58088;51.186;17.130;2022-12-07T06:10:41;3.78;82.50
70534;SHT31;58088;51.186;17.130;2022-12-07T06:13:08;3.77;82.49
70534;SHT31;58088;51.186;17.130;2022-12-07T06:15:38;3.76;82.46
70534;SHT31;58088;51.186;17.130;2022-12-07T06:18:04;3.75;82.42
70534;SHT31;58088;51.186;17.130;2022-12-07T06:20:30;3.76;82.40
70534;SHT31;58088;51.186;17.130;2022-12-07T06:22:56;3.76;82.38
70534;SHT31;58088;51.186;17.130;2022-12-07T06:25:23;3.75;82.34
70534;SHT31;58088;51.186;17.130;2022-12-07T06:27:49;3.73;82.32
70534;SHT31;58088;51.186;17.130;2022-12-07T06:30:15;3.73;82.30
70534;SHT31;58088;51.186;17.130;2022-12-07T06:32:41;3.72;82.22
70534;SHT31;58088;51.186;17.130;2022-12-07T06:35:08;3.73;82.20
70534;SHT31;58088;51.186;17.130;2022-12-07T06:37:34;3.72;82.11
70534;SHT31;58088;51.186;17.130;2022-12-07T06:40:00;3.73;82.10
70534;SHT31;58088;51.186;17.130;2022-12-07T06:42:27;3.72;82.00
70534;SHT31;58088;51.186;17.130;2022-12-07T06:44:53;3.73;81.90
70534;SHT31;58088;51.186;17.130;2022-12-07T06:47:19;3.74;81.88
70534;SHT31;58088;51.186;17.130;2022-12-07T06:49:45;3.74;81.82
70534;SHT31;58088;51.186;17.130;2022-12-07T06:52:12;3.74;81.78
70534;SHT31;58088;51.186;17.130;2022-12-07T06:54:38;3.73;81.70
70534;SHT31;58088;51.186;17.130;2022-12-07T06:57:04;3.73;81.70
70534;SHT31;58088;51.186;17.130;2022-12-07T06:59:31;3.75;81.61
70534;SHT31;58088;51.186;17.130;2022-12-07T07:01:57;3.73;81.58
70534;SHT31;58088;51.186;17.130;2022-12-07T07:04:23;3.75;81.55
70534;SHT31;58088;51.186;17.130;2022-12-07T07:06:50;3.72;81.49
70534;SHT31;58088;51.186;17.130;2022-12-07T07:09:16;3.72;81.44
70534;SHT31;58088;51.186;17.130;2022-12-07T07:11:43;3.71;81.36
70534;SHT31;58088;51.186;17.130;2022-12-07T07:14:09;3.71;81.31
70534;SHT31;58088;51.186;17.130;2022-12-07T07:16:36;3.70;81.29
70534;SHT31;58088;51.186;17.130;2022-12-07T07:19:02;3.69;81.19
70534;SHT31;58088;51.186;17.130;2022-12-07T07:21:28;3.68;81.13
70534;SHT31;58088;51.186;17.130;2022-12-07T07:23:55;3.68;81.09
70534;SHT31;58088;51.186;17.130;2022-12-07T07:26:22;3.69;81.00
70534;SHT31;58088;51.186;17.130;2022-12-07T07:28:48;3.69;80.91
70534;SHT31;58088;51.186;17.130;2022-12-07T07:31:14;3.69;80.90
70534;SHT31;58088;51.186;17.130;2022-12-07T07:33:41;3.70;80.81
70534;SHT31;58088;51.186;17.130;2022-12-07T07:36:07;3.70;80.77
70534;SHT31;58088;51.186;17.130;2022-12-07T07:38:34;3.69;80.70
70534;SHT31;58088;51.186;17.130;2022-12-07T07:41:00;3.67;80.53
70534;SHT31;58088;51.186;17.130;2022-12-07T07:43:26;3.71;80.60
70534;SHT31;58088;51.186;17.130;2022-12-07T07:45:52;3.74;80.49
70534;SHT31;58088;51.186;17.130;2022-12-07T07:48:19;3.76;80.43
70534;SHT31;58088;51.186;17.130;2022-12-07T07:50:45;3.78;80.41
70534;SHT31;58088;51.186;17.130;2022-12-07T07:53:11;3.80;80.33
70534;SHT31;58088;51.186;17.130;2022-12-07T07:55:37;3.82;80.27
70534;SHT31;58088;51.186;17.130;2022-12-07T07:58:03;3.87;80.20
70534;SHT31;58088;51.186;17.130;2022-12-07T08:00:30;3.93;80.11
70534;SHT31;58088;51.186;17.130;2022-12-07T08:02:56;4.01;80.06
70534;SHT31;58088;51.186;17.130;2022-12-07T08:05:22;4.07;79.96
70534;SHT31;58088;51.186;17.130;2022-12-07T08:07:48;4.11;79.84
70534;SHT31;58088;51.186;17.130;2022-12-07T08:10:14;4.09;79.80
70534;SHT31;58088;51.186;17.130;2022-12-07T08:12:42;4.09;79.73
70534;SHT31;58088;51.186;17.130;2022-12-07T08:15:28;4.09;79.73
70534;SHT31;58088;51.186;17.130;2022-12-07T08:17:56;4.11;79.71
70534;SHT31;58088;51.186;17.130;2022-12-07T08:20:24;4.11;79.66
70534;SHT31;58088;51.186;17.130;2022-12-07T08:22:50;4.10;79.54
70534;SHT31;58088;51.186;17.130;2022-12-07T08:25:17;4.08;79.51
70534;SHT31;58088;51.186;17.130;2022-12-07T08:27:43;4.09;79.45
70534;SHT31;58088;51.186;17.130;2022-12-07T08:30:09;4.11;79.45
70534;SHT31;58088;51.186;17.130;2022-12-07T08:32:36;4.10;79.32
70534;SHT31;58088;51.186;17.130;2022-12-07T08:35:02;4.12;79.34
70534;SHT31;58088;51.186;17.130;2022-12-07T08:37:28;4.12;79.25
70534;SHT31;58088;51.186;17.130;2022-12-07T08:39:55;4.13;79.18
70534;SHT31;58088;51.186;17.130;2022-12-07T08:42:21;4.20;79.10
70534;SHT31;58088;51.186;17.130;2022-12-07T08:44:53;4.29;79.06
70534;SHT31;58088;51.186;17.130;2022-12-07T08:47:19;4.40;79.01
70534;SHT31;58088;51.186;17.130;2022-12-07T08:49:45;4.45;78.94
70534;SHT31;58088;51.186;17.130;2022-12-07T08:52:16;4.47;78.90
70534;SHT31;58088;51.186;17.130;2022-12-07T08:54:43;4.52;78.74
70534;SHT31;58088;51.186;17.130;2022-12-07T08:57:11;4.52;78.48
70534;SHT31;58088;51.186;17.130;2022-12-07T08:59:38;4.55;78.40
70534;SHT31;58088;51.186;17.130;2022-12-07T09:02:05;4.61;78.21
70534;SHT31;58088;51.186;17.130;2022-12-07T09:04:31;4.71;78.18
70534;SHT31;58088;51.186;17.130;2022-12-07T09:06:58;4.82;78.06
70534;SHT31;58088;51.186;17.130;2022-12-07T09:09:24;4.89;77.75
70534;SHT31;58088;51.186;17.130;2022-12-07T09:11:51;4.98;77.57
70534;SHT31;58088;51.186;17.130;2022-12-07T09:14:17;5.10;77.47
70534;SHT31;58088;51.186;17.130;2022-12-07T09:16:44;5.14;77.23
70534;SHT31;58088;51.186;17.130;2022-12-07T09:19:10;5.13;77.05
70534;SHT31;58088;51.186;17.130;2022-12-07T09:21:37;5.14;76.87
70534;SHT31;58088;51.186;17.130;2022-12-07T09:24:03;5.18;76.68
70534;SHT31;58088;51.186;17.130;2022-12-07T09:26:30;5.16;76.22
70534;SHT31;58088;51.186;17.130;2022-12-07T09:28:56;5.20;76.10
70534;SHT31;58088;51.186;17.130;2022-12-07T09:31:22;5.31;76.14
70534;SHT31;58088;51.186;17.130;2022-12-07T09:33:55;5.37;75.92
70534;SHT31;58088;51.186;17.130;2022-12-07T09:36:24;5.44;75.89
70534;SHT31;58088;51.186;17.130;2022-12-07T09:38:53;5.55;75.68
70534;SHT31;58088;51.186;17.130;2022-12-07T09:41:19;5.60;75.39
70534;SHT31;58088;51.186;17.130;2022-12-07T09:43:48;5.65;75.27
70534;SHT31;58088;51.186;17.130;2022-12-07T09:46:15;5.65;75.07
70534;SHT31;58088;51.186;17.130;2022-12-07T09:48:45;5.63;74.68
70534;SHT31;58088;51.186;17.130;2022-12-07T09:53:49;5.61;74.33
70534;SHT31;58088;51.186;17.130;2022-12-07T09:56:17;5.61;74.19
70534;SHT31;58088;51.186;17.130;2022-12-07T09:58:45;5.57;73.73
70534;SHT31;58088;51.186;17.130;2022-12-07T10:01:16;5.55;73.58
70534;SHT31;58088;51.186;17.130;2022-12-07T10:03:50;5.51;73.17
70534;SHT31;58088;51.186;17.130;2022-12-07T10:06:21;5.55;73.19
70534;SHT31;58088;51.186;17.130;2022-12-07T10:08:49;5.56;73.20
70534;SHT31;58088;51.186;17.130;2022-12-07T10:11:15;5.57;72.99
70534;SHT31;58088;51.186;17.130;2022-12-07T10:13:42;5.62;73.09
70534;SHT31;58088;51.186;17.130;2022-12-07T10:16:31;5.63;72.81
70534;SHT31;58088;51.186;17.130;2022-12-07T10:22:12;5.61;71.91
70534;SHT31;58088;51.186;17.130;2022-12-07T10:24:47;5.58;71.59
70534;SHT31;58088;51.186;17.130;2022-12-07T10:27:20;5.59;71.49
70534;SHT31;58088;51.186;17.130;2022-12-07T10:29:54;5.55;71.31
70534;SHT31;58088;51.186;17.130;2022-12-07T10:37:54;5.58;71.83
70534;SHT31;58088;51.186;17.130;2022-12-07T10:40:26;5.59;71.93
70534;SHT31;58088;51.186;17.130;2022-12-07T10:43:21;5.54;71.80
70534;SHT31;58088;51.186;17.130;2022-12-07T10:48:29;5.49;72.10
70534;SHT31;58088;51.186;17.130;2022-12-07T11:06:14;5.23;73.65
70534;SHT31;58088;51.186;17.130;2022-12-07T11:14:24;5.13;73.95
70534;SHT31;58088;51.186;17.130;2022-12-07T11:17:08;5.10;74.12
70534;SHT31;58088;51.186;17.130;2022-12-07T11:19:52;5.07;74.34
70534;SHT31;58088;51.186;17.130;2022-12-07T11:22:57;5.03;74.75
70534;SHT31;58088;51.186;17.130;2022-12-07T11:37:48;5.01;75.90
70534;SHT31;58088;51.186;17.130;2022-12-07T11:40:30;5.02;75.89
70534;SHT31;58088;51.186;17.130;2022-12-07T11:48:33;5.02;75.90
70534;SHT31;58088;51.186;17.130;2022-12-07T11:51:38;5.01;76.01
70534;SHT31;58088;51.186;17.130;2022-12-07T11:54:16;5.04;76.09
70534;SHT31;58088;51.186;17.130;2022-12-07T11:56:49;5.05;76.10
70534;SHT31;58088;51.186;17.130;2022-12-07T11:59:22;5.05;76.08
70534;SHT31;58088;51.186;17.130;2022-12-07T12:02:02;5.04;76.06
70534;SHT31;58088;51.186;17.130;2022-12-07T12:07:51;5.03;76.16
70534;SHT31;58088;51.186;17.130;2022-12-07T12:10:51;5.04;76.13
70534;SHT31;58088;51.186;17.130;2022-12-07T12:13:48;5.03;76.34
70534;SHT31;58088;51.186;17.130;2022-12-07T12:16:51;4.92;76.68
70534;SHT31;58088;51.186;17.130;2022-12-07T12:25:19;4.87;77.28
70534;SHT31;58088;51.186;17.130;2022-12-07T12:27:54;4.89;77.19
70534;SHT31;58088;51.186;17.130;2022-12-07T12:30:35;4.91;77.11
70534;SHT31;58088;51.186;17.130;2022-12-07T12:33:06;4.95;77.03
70534;SHT31;58088;51.186;17.130;2022-12-07T12:46:53;5.15;76.44
70534;SHT31;58088;51.186;17.130;2022-12-07T12:49:37;5.16;76.15
70534;SHT31;58088;51.186;17.130;2022-12-07T12:54:40;5.22;75.95
70534;SHT31;58088;51.186;17.130;2022-12-07T12:57:35;5.24;75.76
70534;SHT31;58088;51.186;17.130;2022-12-07T13:05:20;5.28;75.50
70534;SHT31;58088;51.186;17.130;2022-12-07T13:07:56;5.30;75.48
70534;SHT31;58088;51.186;17.130;2022-12-07T13:12:58;5.25;75.21
70534;SHT31;58088;51.186;17.130;2022-12-07T13:20:58;5.27;75.30
70534;SHT31;58088;51.186;17.130;2022-12-07T13:28:47;5.27;75.30
70534;SHT31;58088;51.186;17.130;2022-12-07T13:34:05;5.26;75.18
70534;SHT31;58088;51.186;17.130;2022-12-07T13:39:55;5.22;75.01
70534;SHT31;58088;51.186;17.130;2022-12-07T13:42:28;5.18;74.90
70534;SHT31;58088;51.186;17.130;2022-12-07T13:44:56;5.15;74.78
70534;SHT31;58088;51.186;17.130;2022-12-07T13:47:30;5.15;74.80
70534;SHT31;58088;51.186;17.130;2022-12-07T13:50:15;5.17;74.84
70534;SHT31;58088;51.186;17.130;2022-12-07T13:52:54;5.15;74.76
70534;SHT31;58088;51.186;17.130;2022-12-07T13:55:22;5.14;74.76
70534;SHT31;58088;51.186;17.130;2022-12-07T13:57:50;5.14;74.75
70534;SHT31;58088;51.186;17.130;2022-12-07T14:00:29;5.12;74.72
70534;SHT31;58088;51.186;17.130;2022-12-07T14:02:59;5.11;74.63
70534;SHT31;58088;51.186;17.130;2022-12-07T14:06:04;5.03;74.58
70534;SHT31;58088;51.186;17.130;2022-12-07T14:08:43;5.03;74.55
70534;SHT31;58088;51.186;17.130;2022-12-07T14:11:14;5.03;74.62
70534;SHT31;58088;51.186;17.130;2022-12-07T14:16:25;5.01;74.75
70534;SHT31;58088;51.186;17.130;2022-12-07T14:19:04;4.96;74.80
70534;SHT31;58088;51.186;17.130;2022-12-07T14:22:05;4.95;74.90
70534;SHT31;58088;51.186;17.130;2022-12-07T14:24:41;4.95;74.90
70534;SHT31;58088;51.186;17.130;2022-12-07T14:27:22;4.94;74.86
70534;SHT31;58088;51.186;17.130;2022-12-07T14:29:56;4.92;74.81
70534;SHT31;58088;51.186;17.130;2022-12-07T14:32:24;4.90;74.70
70534;SHT31;58088;51.186;17.130;2022-12-07T14:34:55;4.89;74.63
70534;SHT31;58088;51.186;17.130;2022-12-07T14:37:24;4.87;74.48
70534;SHT31;58088;51.186;17.130;2022-12-07T14:39:51;4.87;74.31
70534;SHT31;58088;51.186;17.130;2022-12-07T14:42:17;4.89;74.25
70534;SHT31;58088;51.186;17.130;2022-12-07T14:44:45;4.87;74.14
70534;SHT31;58088;51.186;17.130;2022-12-07T14:47:11;4.86;74.03
70534;SHT31;58088;51.186;17.130;2022-12-07T14:49:38;4.86;73.94
70534;SHT31;58088;51.186;17.130;2022-12-07T14:52:05;4.85;73.81
70534;SHT31;58088;51.186;17.130;2022-12-07T14:54:40;4.87;73.80
70534;SHT31;58088;51.186;17.130;2022-12-07T14:57:11;4.86;73.73
70534;SHT31;58088;51.186;17.130;2022-12-07T14:59:37;4.84;73.65
70534;SHT31;58088;51.186;17.130;2022-12-07T15:02:04;4.82;73.61
70534;SHT31;58088;51.186;17.130;2022-12-07T15:04:32;4.81;73.52
70534;SHT31;58088;51.186;17.130;2022-12-07T15:06:59;4.81;73.51
70534;SHT31;58088;51.186;17.130;2022-12-07T15:09:30;4.81;73.50
70534;SHT31;58088;51.186;17.130;2022-12-07T15:11:56;4.82;73.50
70534;SHT31;58088;51.186;17.130;2022-12-07T15:14:23;4.83;73.43
70534;SHT31;58088;51.186;17.130;2022-12-07T15:16:49;4.85;73.37
70534;SHT31;58088;51.186;17.130;2022-12-07T15:19:20;4.83;73.23
70534;SHT31;58088;51.186;17.130;2022-12-07T15:21:51;4.82;73.17
70534;SHT31;58088;51.186;17.130;2022-12-07T15:24:18;4.84;73.23
70534;SHT31;58088;51.186;17.130;2022-12-07T15:26:47;4.86;73.25
70534;SHT31;58088;51.186;17.130;2022-12-07T15:29:14;4.85;73.30
70534;SHT31;58088;51.186;17.130;2022-12-07T15:31:42;4.85;73.21
70534;SHT31;58088;51.186;17.130;2022-12-07T15:34:09;4.85;73.11
70534;SHT31;58088;51.186;17.130;2022-12-07T15:36:39;4.85;73.10
70534;SHT31;58088;51.186;17.130;2022-12-07T15:39:05;4.85;73.02
70534;SHT31;58088;51.186;17.130;2022-12-07T15:41:32;4.82;73.03
70534;SHT31;58088;51.186;17.130;2022-12-07T15:43:59;4.78;72.96
70534;SHT31;58088;51.186;17.130;2022-12-07T15:46:44;4.76;72.91
70534;SHT31;58088;51.186;17.130;2022-12-07T15:49:12;4.74;72.90
70534;SHT31;58088;51.186;17.130;2022-12-07T15:51:42;4.74;72.91
70534;SHT31;58088;51.186;17.130;2022-12-07T15:54:19;4.72;72.95
70534;SHT31;58088;51.186;17.130;2022-12-07T15:56:49;4.70;72.98
70534;SHT31;58088;51.186;17.130;2022-12-07T15:59:16;4.67;73.00
70534;SHT31;58088;51.186;17.130;2022-12-07T16:01:42;4.62;73.09
70534;SHT31;58088;51.186;17.130;2022-12-07T16:04:09;4.59;73.10
70534;SHT31;58088;51.186;17.130;2022-12-07T16:06:36;4.58;73.10
70534;SHT31;58088;51.186;17.130;2022-12-07T16:09:04;4.57;73.10
70534;SHT31;58088;51.186;17.130;2022-12-07T16:11:34;4.52;73.16
70534;SHT31;58088;51.186;17.130;2022-12-07T16:14:03;4.49;73.24
70534;SHT31;58088;51.186;17.130;2022-12-07T16:16:33;4.46;73.30
70534;SHT31;58088;51.186;17.130;2022-12-07T16:18:59;4.43;73.39
70534;SHT31;58088;51.186;17.130;2022-12-07T16:21:26;4.40;73.41
70534;SHT31;58088;51.186;17.130;2022-12-07T16:23:57;4.37;73.43
70534;SHT31;58088;51.186;17.130;2022-12-07T16:26:24;4.34;73.55
70534;SHT31;58088;51.186;17.130;2022-12-07T16:28:52;4.31;73.67
70534;SHT31;58088;51.186;17.130;2022-12-07T16:31:21;4.28;73.70
70534;SHT31;58088;51.186;17.130;2022-12-07T16:33:55;4.25;73.79
70534;SHT31;58088;51.186;17.130;2022-12-07T16:36:27;4.20;73.85
70534;SHT31;58088;51.186;17.130;2022-12-07T16:38:54;4.19;73.93
70534;SHT31;58088;51.186;17.130;2022-12-07T16:41:20;4.16;74.04
70534;SHT31;58088;51.186;17.130;2022-12-07T16:43:47;4.13;74.12
70534;SHT31;58088;51.186;17.130;2022-12-07T16:46:13;4.12;74.20
70534;SHT31;58088;51.186;17.130;2022-12-07T16:48:41;4.10;74.28
70534;SHT31;58088;51.186;17.130;2022-12-07T16:51:08;4.06;74.36
70534;SHT31;58088;51.186;17.130;2022-12-07T16:53:39;4.03;74.44
70534;SHT31;58088;51.186;17.130;2022-12-07T16:56:11;4.00;74.52
70534;SHT31;58088;51.186;17.130;2022-12-07T16:58:40;3.98;74.63
70534;SHT31;58088;51.186;17.130;2022-12-07T17:01:12;3.95;74.73
70534;SHT31;58088;51.186;17.130;2022-12-07T17:03:41;3.95;74.80
70534;SHT31;58088;51.186;17.130;2022-12-07T17:06:27;3.93;74.87
70534;SHT31;58088;51.186;17.130;2022-12-07T17:08:55;3.91;74.98
70534;SHT31;58088;51.186;17.130;2022-12-07T17:11:23;3.89;75.09
70534;SHT31;58088;51.186;17.130;2022-12-07T17:13:53;3.88;75.22
70534;SHT31;58088;51.186;17.130;2022-12-07T17:16:38;3.86;75.38
70534;SHT31;58088;51.186;17.130;2022-12-07T17:19:06;3.87;75.55
70534;SHT31;58088;51.186;17.130;2022-12-07T17:21:36;3.87;75.68
70534;SHT31;58088;51.186;17.130;2022-12-07T17:24:03;3.90;75.75
70534;SHT31;58088;51.186;17.130;2022-12-07T17:26:33;3.89;75.80
70534;SHT31;58088;51.186;17.130;2022-12-07T17:29:00;3.88;75.85
70534;SHT31;58088;51.186;17.130;2022-12-07T17:31:28;3.87;75.86
70534;SHT31;58088;51.186;17.130;2022-12-07T17:33:55;3.86;75.90
70534;SHT31;58088;51.186;17.130;2022-12-07T17:36:22;3.85;75.92
70534;SHT31;58088;51.186;17.130;2022-12-07T17:38:52;3.83;75.98
70534;SHT31;58088;51.186;17.130;2022-12-07T17:41:20;3.82;76.00
70534;SHT31;58088;51.186;17.130;2022-12-07T17:44:12;3.81;76.00
70534;SHT31;58088;51.186;17.130;2022-12-07T17:46:42;3.79;76.00
70534;SHT31;58088;51.186;17.130;2022-12-07T17:49:11;3.74;76.01
70534;SHT31;58088;51.186;17.130;2022-12-07T17:51:39;3.71;76.08
70534;SHT31;58088;51.186;17.130;2022-12-07T17:54:24;3.68;76.09
70534;SHT31;58088;51.186;17.130;2022-12-07T17:56:51;3.64;76.10
70534;SHT31;58088;51.186;17.130;2022-12-07T17:59:17;3.61;76.16
70534;SHT31;58088;51.186;17.130;2022-12-07T18:01:44;3.55;76.19
70534;SHT31;58088;51.186;17.130;2022-12-07T18:04:12;3.52;76.21
70534;SHT31;58088;51.186;17.130;2022-12-07T18:06:38;3.49;76.23
70534;SHT31;58088;51.186;17.130;2022-12-07T18:09:06;3.45;76.27
70534;SHT31;58088;51.186;17.130;2022-12-07T18:11:33;3.42;76.30
70534;SHT31;58088;51.186;17.130;2022-12-07T18:14:01;3.41;76.30
70534;SHT31;58088;51.186;17.130;2022-12-07T18:16:31;3.37;76.29
70534;SHT31;58088;51.186;17.130;2022-12-07T18:19:02;3.35;76.30
70534;SHT31;58088;51.186;17.130;2022-12-07T18:21:32;3.33;76.30
70534;SHT31;58088;51.186;17.130;2022-12-07T18:24:01;3.32;76.30